createdAt,value
2022-11-24T00:04:31.403Z,8.80
2022-11-24T00:09:39.307Z,9.32
2022-11-24T00:14:44.825Z,9.70
2022-11-24T00:19:49.928Z,8.85
2022-11-24T00:24:57.951Z,7.32
2022-11-24T00:30:03.012Z,8.25
2022-11-24T00:35:09.276Z,8.70
2022-11-24T00:40:17.092Z,8.25
2022-11-24T00:45:22.213Z,7.63
2022-11-24T00:50:27.247Z,7.35
2022-11-24T00:55:34.956Z,8.27
2022-11-24T01:00:39.936Z,8.38
2022-11-24T01:05:44.962Z,7.10
2022-11-24T01:10:52.600Z,7.85
2022-11-24T01:15:57.671Z,7.55
2022-11-24T01:21:10.004Z,8.63
2022-11-24T01:26:20.503Z,9.25
2022-11-24T01:31:25.829Z,8.95
2022-11-24T01:36:30.874Z,7.60
2022-11-24T01:41:38.513Z,9.10
2022-11-24T01:46:45.315Z,8.45
2022-11-24T01:51:52.900Z,9.07
2022-11-24T01:57:02.708Z,8.82
2022-11-24T02:02:08.089Z,8.73
2022-11-24T02:07:15.084Z,8.98
2022-11-24T02:12:22.979Z,8.75
2022-11-24T02:17:35.363Z,9.00
2022-11-24T02:22:47.162Z,8.50
2022-11-24T02:27:55.740Z,8.85
2022-11-24T02:33:00.701Z,9.68
2022-11-24T02:38:05.652Z,9.52
2022-11-24T02:43:15.578Z,9.80
2022-11-24T02:48:21.086Z,10.40
2022-11-24T02:53:26.048Z,10.30
2022-11-24T02:58:33.557Z,10.27
2022-11-24T03:03:38.476Z,9.88
2022-11-24T03:08:44.164Z,9.70
2022-11-24T03:13:52.829Z,10.15
2022-11-24T03:18:57.788Z,9.68
2022-11-24T03:24:02.796Z,9.38
2022-11-24T03:29:10.368Z,9.73
2022-11-24T03:34:15.342Z,7.88
2022-11-24T03:39:20.350Z,8.73
2022-11-24T03:44:27.913Z,8.10
2022-11-24T03:49:33.182Z,7.43
2022-11-24T03:54:38.343Z,8.38
2022-11-24T03:59:45.913Z,8.05
2022-11-24T04:04:53.543Z,8.70
2022-11-24T04:09:58.563Z,7.72
2022-11-24T04:15:06.348Z,6.95
2022-11-24T04:20:13.050Z,7.28
2022-11-24T04:25:18.671Z,6.85
2022-11-24T04:30:27.474Z,6.50
2022-11-24T04:35:32.529Z,6.80
2022-11-24T04:40:37.534Z,6.43
2022-11-24T04:45:45.267Z,6.03
2022-11-24T04:50:50.326Z,6.07
2022-11-24T04:55:55.415Z,6.22
2022-11-24T05:01:03.099Z,6.30
2022-11-24T05:06:09.438Z,6.35
2022-11-24T05:11:16.671Z,6.30
2022-11-24T05:16:24.447Z,5.63
2022-11-24T05:21:30.546Z,6.15
2022-11-24T05:26:35.869Z,6.40
2022-11-24T05:31:43.507Z,6.40
2022-11-24T05:37:03.121Z,7.03
2022-11-24T05:42:22.177Z,6.35
2022-11-24T05:47:32.910Z,5.85
2022-11-24T05:52:38.325Z,5.63
2022-11-24T05:57:43.664Z,6.90
2022-11-24T06:02:52.136Z,6.65
2022-11-24T06:07:57.809Z,5.63
2022-11-24T06:13:02.831Z,5.65
2022-11-24T06:18:10.522Z,5.68
2022-11-24T06:23:15.501Z,6.57
2022-11-24T06:28:20.569Z,5.88
2022-11-24T06:33:28.216Z,6.70
2022-11-24T06:38:33.667Z,5.22
2022-11-24T06:43:39.219Z,6.63
2022-11-24T06:48:47.366Z,5.78
2022-11-24T06:53:52.422Z,7.22
2022-11-24T06:58:57.434Z,6.13
2022-11-24T07:04:05.013Z,6.32
2022-11-24T07:09:10.049Z,6.80
2022-11-24T07:14:15.095Z,6.60
2022-11-24T07:19:25.007Z,7.35
2022-11-24T07:24:30.439Z,7.22
2022-11-24T07:29:37.975Z,7.82
2022-11-24T07:34:45.734Z,6.68
2022-11-24T07:39:50.949Z,6.47
2022-11-24T07:44:56.003Z,6.38
2022-11-24T07:50:03.936Z,6.00
2022-11-24T08:00:31.382Z,7.05
2022-11-24T08:05:54.485Z,11.23
2022-11-24T08:11:11.523Z,6.35
2022-11-24T08:16:18.083Z,6.78
2022-11-24T08:21:28.497Z,6.03
2022-11-24T08:26:35.896Z,7.22
2022-11-24T08:31:42.168Z,5.53
2022-11-24T08:36:49.979Z,7.60
2022-11-24T08:41:55.146Z,6.82
2022-11-24T08:47:00.234Z,6.55
2022-11-24T08:52:08.455Z,7.22
2022-11-24T08:57:18.637Z,5.10
2022-11-24T09:02:26.712Z,5.10
2022-11-24T09:07:34.500Z,5.65
2022-11-24T09:12:39.779Z,6.47
2022-11-24T09:17:44.936Z,5.88
2022-11-24T09:22:52.654Z,5.85
2022-11-24T09:27:58.824Z,5.75
2022-11-24T09:33:03.886Z,6.55
2022-11-24T09:38:11.764Z,5.63
2022-11-24T09:56:59.436Z,5.18
2022-11-24T10:08:57.233Z,6.45
2022-11-24T11:01:56.546Z,5.38
2022-11-24T11:27:42.865Z,6.70
2022-11-24T12:17:31.615Z,3.95
2022-11-24T12:23:46.158Z,4.40
2022-11-24T12:29:39.047Z,3.05
2022-11-24T12:35:37.817Z,6.03
2022-11-24T13:15:50.498Z,4.82
2022-11-24T13:21:44.439Z,3.85
2022-11-24T13:33:16.590Z,2.35
2022-11-24T13:39:08.453Z,2.75
2022-11-24T13:44:40.064Z,4.63
2022-11-24T13:50:49.575Z,5.13
2022-11-24T14:01:49.120Z,5.45
2022-11-24T14:07:40.939Z,5.80
2022-11-24T14:13:27.603Z,5.50
2022-11-24T14:18:49.032Z,5.32
2022-11-24T14:24:30.272Z,6.65
2022-11-24T14:29:52.978Z,4.18
2022-11-24T14:35:31.466Z,2.03
2022-11-24T14:40:55.645Z,2.30
2022-11-24T14:46:19.018Z,2.13
2022-11-24T14:51:59.727Z,2.72
2022-11-24T14:57:38.714Z,2.92
2022-11-24T15:03:08.765Z,2.50
2022-11-24T15:08:34.915Z,2.40
2022-11-24T15:13:47.729Z,3.67
2022-11-24T15:19:22.283Z,3.88
2022-11-24T15:24:47.865Z,4.72
2022-11-24T15:36:05.901Z,6.28
2022-11-24T15:41:53.119Z,5.32
2022-11-24T15:47:16.582Z,6.13
2022-11-24T15:52:25.969Z,6.03
2022-11-24T15:57:51.854Z,5.78
2022-11-24T16:03:45.190Z,6.93
2022-11-24T16:08:48.108Z,6.72
2022-11-24T16:14:20.691Z,6.95
2022-11-24T16:19:37.402Z,6.85
2022-11-24T16:25:44.847Z,5.88
2022-11-24T16:30:46.138Z,4.90
2022-11-24T16:36:07.935Z,6.10
2022-11-24T16:41:33.858Z,4.65
2022-11-24T16:46:50.752Z,4.50
2022-11-24T16:52:00.374Z,6.07
2022-11-24T16:57:14.920Z,6.68
2022-11-24T17:03:08.328Z,5.40
2022-11-24T17:08:13.883Z,4.03
2022-11-24T17:13:57.418Z,4.70
2022-11-24T17:19:02.178Z,4.78
2022-11-24T17:24:21.066Z,4.78
2022-11-24T17:29:50.969Z,4.28
2022-11-24T17:35:05.582Z,4.18
2022-11-24T17:40:28.548Z,4.95
2022-11-24T17:45:47.185Z,4.43
2022-11-24T17:51:17.300Z,4.93
2022-11-24T18:07:45.458Z,5.88
2022-11-24T18:12:52.034Z,7.13
2022-11-24T18:18:11.820Z,7.30
2022-11-24T18:23:40.513Z,5.47
2022-11-24T18:29:09.743Z,7.20
2022-11-24T18:34:41.158Z,7.75
2022-11-24T18:40:01.089Z,7.03
2022-11-24T18:45:07.719Z,8.60
2022-11-24T18:50:36.679Z,7.03
2022-11-24T18:55:45.055Z,7.20
2022-11-24T19:01:00.430Z,6.80
2022-11-24T19:06:11.504Z,10.55
2022-11-24T19:11:26.909Z,6.93
2022-11-24T19:16:54.795Z,8.15
2022-11-24T19:22:02.777Z,8.75
2022-11-24T19:27:08.091Z,6.25
2022-11-24T19:32:13.682Z,6.63
2022-11-24T19:37:21.719Z,7.60
2022-11-24T19:42:26.821Z,8.35
2022-11-24T19:47:31.917Z,7.57
2022-11-24T19:52:39.863Z,8.57
2022-11-24T19:57:44.903Z,7.70
2022-11-24T20:02:50.545Z,6.38
2022-11-24T20:07:58.357Z,6.60
2022-11-24T20:13:03.452Z,5.45
2022-11-24T20:18:08.802Z,5.90
2022-11-24T20:23:17.072Z,5.65
2022-11-24T20:28:22.430Z,6.53
2022-11-24T20:33:27.641Z,5.90
2022-11-24T20:38:35.609Z,6.97
2022-11-24T20:43:41.190Z,7.22
2022-11-24T20:48:46.598Z,7.68
2022-11-24T20:53:55.756Z,7.18
2022-11-24T20:59:01.538Z,6.68
2022-11-24T21:04:07.284Z,6.88
2022-11-24T21:09:14.892Z,6.45
2022-11-24T21:14:19.973Z,6.47
2022-11-24T21:19:25.012Z,6.35
2022-11-24T21:30:07.543Z,7.95
2022-11-24T21:35:12.848Z,7.10
2022-11-24T21:40:20.758Z,7.57
2022-11-24T21:45:25.915Z,7.55
2022-11-24T21:50:31.169Z,6.80
2022-11-24T21:55:38.922Z,8.32
2022-11-24T22:00:44.151Z,7.43
2022-11-24T22:05:56.275Z,7.32
2022-11-24T22:11:08.528Z,7.75
2022-11-24T22:16:15.243Z,7.75
2022-11-24T22:21:22.672Z,6.53
2022-11-24T22:26:30.911Z,6.55
2022-11-24T22:31:36.438Z,7.55
2022-11-24T22:36:41.824Z,7.40
2022-11-24T22:41:49.557Z,6.72
2022-11-24T22:46:54.618Z,8.27
2022-11-24T22:52:04.903Z,6.47
2022-11-24T22:57:12.975Z,6.72
2022-11-24T23:02:18.081Z,6.75
2022-11-24T23:07:23.286Z,6.28
2022-11-24T23:12:31.370Z,5.85
2022-11-24T23:17:36.524Z,7.05
2022-11-24T23:22:41.650Z,9.50
2022-11-24T23:27:49.416Z,7.63
2022-11-24T23:32:55.915Z,11.18
2022-11-24T23:38:07.319Z,8.82
2022-11-24T23:43:15.445Z,14.05
2022-11-24T23:48:20.874Z,15.50
2022-11-24T23:53:25.918Z,17.88
2022-11-24T23:58:33.909Z,23.50
